Time;durP1;ratioP1;P1;durP2;ratioP2;P2;SDS_P1;SDS_P2;PMS_P1;PMS_P2;Temp;Humidity;BMP_temperature;BMP_pressure;BME280_temperature;BME280_humidity;BME280_pressure;Samples;Min_cycle;Max_cycle;Signal;HPM_P1;HPM_P2
2024/01/29 00:01:10;;;;;;;;;;;;;;;;;;5054078;28;20426;-65
2024/01/29 00:03:37;;;;;;;;;;;;;;;;;;5053985;28;20285;-65
2024/01/29 00:06:04;;;;;;;;;;;;;;;;;;5053981;28;19947;-65
2024/01/29 00:08:31;;;;;;;;;;;;;;;;;;5041435;28;19947;-65
2024/01/29 00:10:58;;;;;;;;;;;;;;;;;;5037199;28;20304;-65
2024/01/29 00:13:26;;;;;;;;;;;;;;;;;;5053443;28;19947;-65
2024/01/29 00:15:53;;;;;;;;;;;;;;;;;;5049502;28;19971;-65
2024/01/29 00:18:20;;;;;;;;;;;;;;;;;;5061258;28;20292;-65
2024/01/29 00:20:47;;;;;;;;;;;;;;;;;;5054366;28;19924;-65
2024/01/29 00:23:14;;;;;;;;;;;;;;;;;;5054588;28;20016;-65
2024/01/29 00:25:41;;;;;;;;;;;;;;;;;;5049601;28;19986;-65
2024/01/29 00:28:08;;;;;;;;;;;;;;;;;;5054193;28;20365;-65
2024/01/29 00:30:35;;;;;;;;;;;;;;;;;;5053870;28;19932;-65
2024/01/29 00:33:02;;;;;;;;;;;;;;;;;;5053941;28;19983;-65
2024/01/29 00:35:29;;;;;;;;;;;;;;;;;;5053347;28;20372;-65
2024/01/29 00:37:56;;;;;;;;;;;;;;;;;;5053892;28;19978;-65
2024/01/29 00:40:24;;;;;;;;;;;;;;;;;;5054353;28;19928;-66
2024/01/29 00:42:51;;;;;;;;;;;;;;;;;;5046940;28;19925;-66
2024/01/29 00:45:18;;;;;;;;;;;;;;;;;;5051874;28;19925;-64
2024/01/29 00:47:45;;;;;;;;;;;;;;;;;;5041120;28;19928;-65
2024/01/29 00:50:12;;;;;;;;;;;;;;;;;;5053200;28;19925;-64
2024/01/29 00:52:39;;;;;;;;;;;;;;;;;;5053498;28;20387;-65
2024/01/29 00:55:06;;;;;;;;;;;;;;;;;;5053259;28;19970;-66
2024/01/29 00:57:33;;;;;;;;;;;;;;;;;;5063146;28;19925;-64
2024/01/29 01:00:00;;;;;;;;;;;;;;;;;;5047333;28;20021;-65
2024/01/29 01:02:28;;;;;;;;;;;;;;;;;;5052828;28;20002;-65
2024/01/29 01:04:55;;;;;;;;;;;;;;;;;;5052649;28;19986;-65
2024/01/29 01:07:22;;;;;;;;;;;;;;;;;;5052766;28;19978;-65
2024/01/29 01:09:49;;;;;;;;;;;;;;;;;;5053045;28;20446;-66
2024/01/29 01:12:16;;;;;;;;;;;;;;;;;;5053354;28;19929;-65
2024/01/29 01:14:43;;;;;;;;;;;;;;;;;;5053307;28;19998;-66
2024/01/29 01:17:10;;;;;;;;;;;;;;;;;;5038635;28;20315;-66
2024/01/29 01:19:37;;;;;;;;;;;;;;;;;;5052546;28;19979;-66
2024/01/29 01:22:04;;;;;;;;;;;;;;;;;;5053703;28;19929;-65
2024/01/29 01:24:31;;;;;;;;;;;;;;;;;;5056726;28;20417;-65
2024/01/29 01:26:58;;;;;;;;;;;;;;;;;;5052779;28;20280;-66
2024/01/29 01:29:25;;;;;;;;;;;;;;;;;;5051717;28;20411;-66
2024/01/29 01:31:52;;;;;;;;;;;;;;;;;;5052812;28;19925;-65
2024/01/29 01:34:19;;;;;;;;;;;;;;;;;;5048159;28;19925;-66
2024/01/29 01:36:46;;;;;;;;;;;;;;;;;;5052622;28;20465;-66
2024/01/29 01:39:13;;;;;;;;;;;;;;;;;;5052011;28;19960;-67
2024/01/29 01:41:40;;;;;;;;;;;;;;;;;;5051738;28;19994;-65
2024/01/29 01:44:07;;;;;;;;;;;;;;;;;;5052024;28;19986;-65
2024/01/29 01:46:34;;;;;;;;;;;;;;;;;;5051297;28;19924;-65
2024/01/29 01:49:01;;;;;;;;;;;;;;;;;;5051168;28;19928;-66
2024/01/29 01:51:28;;;;;;;;;;;;;;;;;;5051431;28;20002;-66
2024/01/29 01:53:55;;;;;;;;;;;;;;;;;;5052069;28;19956;-66
2024/01/29 01:56:22;;;;;;;;;;;;;;;;;;5052027;28;19990;-65
2024/01/29 01:58:49;;;;;;;;;;;;;;;;;;5051848;28;19955;-67
2024/01/29 02:01:16;;;;;;;;;;;;;;;;;;5051987;28;19975;-66
2024/01/29 02:03:43;;;;;;;;;;;;;;;;;;5049487;28;19937;-67
2024/01/29 02:06:10;;;;;;;;;;;;;;;;;;5059842;28;19925;-67
2024/01/29 02:08:37;;;;;;;;;;;;;;;;;;5050278;28;19929;-66
2024/01/29 02:11:04;;;;;;;;;;;;;;;;;;5051523;28;20485;-67
2024/01/29 02:13:31;;;;;;;;;;;;;;;;;;5051530;28;19925;-67
2024/01/29 02:15:59;;;;;;;;;;;;;;;;;;5051385;28;19928;-64
2024/01/29 02:18:26;;;;;;;;;;;;;;;;;;5051874;28;19928;-66
2024/01/29 02:20:53;;;;;;;;;;;;;;;;;;5051603;28;19971;-66
2024/01/29 02:23:20;;;;;;;;;;;;;;;;;;5047352;28;19929;-64
2024/01/29 02:25:47;;;;;;;;;;;;;;;;;;5035522;28;19928;-65
2024/01/29 02:28:14;;;;;;;;;;;;;;;;;;5051560;28;19925;-65
2024/01/29 02:30:41;;;;;;;;;;;;;;;;;;5050363;28;19939;-65
2024/01/29 02:33:08;;;;;;;;;;;;;;;;;;5051266;28;19986;-65
2024/01/29 02:35:35;;;;;;;;;;;;;;;;;;5051221;28;19935;-65
2024/01/29 02:38:02;;;;;;;;;;;;;;;;;;5048240;28;19925;-65
2024/01/29 02:40:29;;;;;;;;;;;;;;;;;;5049200;28;19925;-65
2024/01/29 02:42:56;;;;;;;;;;;;;;;;;;5051788;28;19925;-65
2024/01/29 02:45:23;;;;;;;;;;;;;;;;;;5051948;28;19932;-65
2024/01/29 02:47:50;;;;;;;;;;;;;;;;;;5055416;28;20437;-65
2024/01/29 02:50:18;;;;;;;;;;;;;;;;;;5051627;28;19931;-65
2024/01/29 02:52:45;;;;;;;;;;;;;;;;;;5050644;28;20477;-65
2024/01/29 02:55:12;;;;;;;;;;;;;;;;;;5051653;28;19924;-65
2024/01/29 02:57:39;;;;;;;;;;;;;;;;;;5038530;28;20033;-65
2024/01/29 03:00:06;;;;;;;;;;;;;;;;;;5051726;28;20379;-65
2024/01/29 03:02:33;;;;;;;;;;;;;;;;;;5052003;28;19924;-65
2024/01/29 03:05:00;;;;;;;;;;;;;;;;;;5058207;28;19928;-65
2024/01/29 03:07:27;;;;;;;;;;;;;;;;;;5054307;28;19932;-66
2024/01/29 03:09:54;;;;;;;;;;;;;;;;;;5051023;28;19925;-65
2024/01/29 03:12:21;;;;;;;;;;;;;;;;;;5040401;28;19925;-65
2024/01/29 03:14:48;;;;;;;;;;;;;;;;;;5047843;28;19994;-65
2024/01/29 03:17:15;;;;;;;;;;;;;;;;;;5051036;28;20049;-65
2024/01/29 03:19:42;;;;;;;;;;;;;;;;;;5050246;28;19986;-66
2024/01/29 03:22:09;;;;;;;;;;;;;;;;;;5050835;28;20354;-65
2024/01/29 03:24:36;;;;;;;;;;;;;;;;;;5058272;28;20002;-65
2024/01/29 03:27:03;;;;;;;;;;;;;;;;;;5054679;28;19929;-65
2024/01/29 03:29:30;;;;;;;;;;;;;;;;;;5055090;28;19986;-65
2024/01/29 03:31:57;;;;;;;;;;;;;;;;;;5051316;28;19925;-64
2024/01/29 03:34:24;;;;;;;;;;;;;;;;;;5054893;28;19975;-65
2024/01/29 03:36:52;;;;;;;;;;;;;;;;;;5049714;28;19925;-65
2024/01/29 03:39:19;;;;;;;;;;;;;;;;;;5046232;28;19932;-65
2024/01/29 03:41:46;;;;;;;;;;;;;;;;;;5055104;28;19971;-64
2024/01/29 03:44:14;;;;;;;;;;;;;;;;;;5055119;28;19928;-65
2024/01/29 03:46:41;;;;;;;;;;;;;;;;;;5055090;28;20024;-66
2024/01/29 03:49:08;;;;;;;;;;;;;;;;;;5046884;28;20353;-65
2024/01/29 03:51:35;;;;;;;;;;;;;;;;;;5054528;28;19925;-65
2024/01/29 03:54:02;;;;;;;;;;;;;;;;;;5054510;28;19932;-66
2024/01/29 03:56:29;;;;;;;;;;;;;;;;;;5054404;28;20042;-65
2024/01/29 03:58:56;;;;;;;;;;;;;;;;;;5053997;28;19929;-66
2024/01/29 04:01:25;;;;;;;;;;;;;;;;;;5053853;28;20447;-65
2024/01/29 04:03:52;;;;;;;;;;;;;;;;;;5054292;28;20391;-66
2024/01/29 04:06:19;;;;;;;;;;;;;;;;;;5060116;28;19958;-65
2024/01/29 04:08:47;;;;;;;;;;;;;;;;;;5054251;28;20395;-65
2024/01/29 04:11:14;;;;;;;;;;;;;;;;;;5054506;28;19963;-65
2024/01/29 04:13:41;;;;;;;;;;;;;;;;;;5054705;28;19925;-65
2024/01/29 04:16:08;;;;;;;;;;;;;;;;;;5056561;28;19929;-65
2024/01/29 04:18:35;;;;;;;;;;;;;;;;;;5074550;28;19925;-65
2024/01/29 04:21:02;;;;;;;;;;;;;;;;;;5058883;28;20342;-65
2024/01/29 04:23:29;;;;;;;;;;;;;;;;;;5053144;28;19925;-65
2024/01/29 04:25:56;;;;;;;;;;;;;;;;;;5053950;28;19960;-65
2024/01/29 04:28:23;;;;;;;;;;;;;;;;;;5061949;28;19964;-64
2024/01/29 04:30:50;;;;;;;;;;;;;;;;;;5054004;28;20368;-66
2024/01/29 04:33:17;;;;;;;;;;;;;;;;;;5053852;28;19974;-65
2024/01/29 04:35:44;;;;;;;;;;;;;;;;;;5054435;28;19925;-65
2024/01/29 04:38:11;;;;;;;;;;;;;;;;;;5052991;28;20284;-65
2024/01/29 04:40:40;;;;;;;;;;;;;;;;;;5045693;28;20009;-65
2024/01/29 04:43:07;;;;;;;;;;;;;;;;;;5052696;28;19929;-65
2024/01/29 04:45:34;;;;;;;;;;;;;;;;;;5053755;28;19929;-65
2024/01/29 04:48:02;;;;;;;;;;;;;;;;;;5053161;28;19925;-65
2024/01/29 04:50:29;;;;;;;;;;;;;;;;;;5052780;28;19924;-65
2024/01/29 04:52:56;;;;;;;;;;;;;;;;;;5052151;28;19925;-65
2024/01/29 04:55:23;;;;;;;;;;;;;;;;;;5053056;28;19979;-65
2024/01/29 04:57:50;;;;;;;;;;;;;;;;;;5056719;28;19925;-65
2024/01/29 05:00:17;;;;;;;;;;;;;;;;;;5052871;28;19924;-65
2024/01/29 05:02:44;;;;;;;;;;;;;;;;;;5053392;28;19925;-66
2024/01/29 05:05:11;;;;;;;;;;;;;;;;;;5062256;28;19997;-66
2024/01/29 05:07:38;;;;;;;;;;;;;;;;;;5065303;28;20387;-65
2024/01/29 05:10:05;;;;;;;;;;;;;;;;;;5053181;28;19967;-65
2024/01/29 05:12:32;;;;;;;;;;;;;;;;;;5052342;28;19928;-66
2024/01/29 05:14:59;;;;;;;;;;;;;;;;;;5052052;28;20000;-65
2024/01/29 05:17:26;;;;;;;;;;;;;;;;;;5052540;28;19933;-65
2024/01/29 05:19:53;;;;;;;;;;;;;;;;;;5052145;28;19959;-66
2024/01/29 05:22:21;;;;;;;;;;;;;;;;;;5052091;28;19925;-66
2024/01/29 05:24:48;;;;;;;;;;;;;;;;;;5052145;28;19948;-66
2024/01/29 05:27:15;;;;;;;;;;;;;;;;;;5053137;28;19967;-65
2024/01/29 05:29:42;;;;;;;;;;;;;;;;;;5052986;28;19979;-66
2024/01/29 05:32:08;;;;;;;;;;;;;;;;;;5033926;28;20310;-66
2024/01/29 05:34:35;;;;;;;;;;;;;;;;;;5040474;28;19924;-66
2024/01/29 05:37:02;;;;;;;;;;;;;;;;;;5050484;28;19987;-66
2024/01/29 05:39:29;;;;;;;;;;;;;;;;;;5051628;28;21145;-66
2024/01/29 05:41:56;;;;;;;;;;;;;;;;;;5051936;28;19964;-67
2024/01/29 05:44:23;;;;;;;;;;;;;;;;;;5052912;28;19929;-66
2024/01/29 05:46:51;;;;;;;;;;;;;;;;;;5052314;28;20380;-66
2024/01/29 05:49:18;;;;;;;;;;;;;;;;;;5046664;28;20046;-67
2024/01/29 05:51:47;;;;;;;;;;;;;;;;;;5051751;28;19925;-67
2024/01/29 05:54:14;;;;;;;;;;;;;;;;;;5052343;28;19924;-66
2024/01/29 05:56:41;;;;;;;;;;;;;;;;;;5051928;28;19964;-66
2024/01/29 05:59:08;;;;;;;;;;;;;;;;;;5051648;28;19978;-66
2024/01/29 06:01:35;;;;;;;;;;;;;;;;;;5050451;28;19925;-65
2024/01/29 06:04:02;;;;;;;;;;;;;;;;;;5049055;28;19924;-66
2024/01/29 06:06:29;;;;;;;;;;;;;;;;;;5050700;28;19989;-65
2024/01/29 06:08:56;;;;;;;;;;;;;;;;;;5055674;28;19924;-67
2024/01/29 06:11:23;;;;;;;;;;;;;;;;;;5051658;28;19979;-67
2024/01/29 06:13:50;;;;;;;;;;;;;;;;;;5051643;28;19994;-67
2024/01/29 06:16:17;;;;;;;;;;;;;;;;;;5052159;28;19929;-67
2024/01/29 06:18:44;;;;;;;;;;;;;;;;;;5047247;28;20343;-67
2024/01/29 06:21:11;;;;;;;;;;;;;;;;;;5041862;28;19960;-67
2024/01/29 06:23:38;;;;;;;;;;;;;;;;;;5045032;28;19925;-66
2024/01/29 06:26:06;;;;;;;;;;;;;;;;;;5051539;28;19973;-66
2024/01/29 06:28:33;;;;;;;;;;;;;;;;;;5048031;28;19929;-66
2024/01/29 06:31:00;;;;;;;;;;;;;;;;;;5049610;28;19925;-65
2024/01/29 06:33:27;;;;;;;;;;;;;;;;;;5051179;28;19979;-66
2024/01/29 06:35:59;;;;;;;;;;;;;;;;;;5051682;28;20438;-66
2024/01/29 06:38:26;;;;;;;;;;;;;;;;;;5037762;28;20308;-66
2024/01/29 06:40:53;;;;;;;;;;;;;;;;;;5046032;28;19925;-67
2024/01/29 06:43:20;;;;;;;;;;;;;;;;;;5046609;28;19932;-66
2024/01/29 06:45:47;;;;;;;;;;;;;;;;;;5034692;28;20002;-66
2024/01/29 06:48:14;;;;;;;;;;;;;;;;;;5050261;28;19929;-66
2024/01/29 06:50:41;;;;;;;;;;;;;;;;;;5051889;28;19929;-66
2024/01/29 06:53:08;;;;;;;;;;;;;;;;;;5051525;28;19925;-66
2024/01/29 06:55:35;;;;;;;;;;;;;;;;;;5045186;28;19929;-66
2024/01/29 06:58:02;;;;;;;;;;;;;;;;;;5049775;28;19929;-67
2024/01/29 07:00:32;;;;;;;;;;;;;;;;;;5032698;28;19968;-66
2024/01/29 07:03:00;;;;;;;;;;;;;;;;;;5027622;28;20028;-67
2024/01/29 07:05:27;;;;;;;;;;;;;;;;;;5035358;28;20376;-67
2024/01/29 07:07:54;;;;;;;;;;;;;;;;;;5042520;28;19948;-66
2024/01/29 07:10:21;;;;;;;;;;;;;;;;;;5050295;28;19925;-66
2024/01/29 07:12:49;;;;;;;;;;;;;;;;;;5044986;28;19929;-65
2024/01/29 07:15:18;;;;;;;;;;;;;;;;;;5035794;28;20404;-65
2024/01/29 07:17:45;;;;;;;;;;;;;;;;;;5051319;28;19925;-66
2024/01/29 07:20:12;;;;;;;;;;;;;;;;;;5050779;28;19939;-67
2024/01/29 07:22:39;;;;;;;;;;;;;;;;;;5040550;28;20012;-66
2024/01/29 07:25:06;;;;;;;;;;;;;;;;;;5035269;28;19992;-67
2024/01/29 07:27:34;;;;;;;;;;;;;;;;;;5037936;28;19929;-67
2024/01/29 07:30:01;;;;;;;;;;;;;;;;;;5051530;28;19928;-68
2024/01/29 07:32:31;;;;;;;;;;;;;;;;;;5047279;28;20407;-67
2024/01/29 07:35:00;;;;;;;;;;;;;;;;;;5047766;28;19925;-67
2024/01/29 07:37:27;;;;;;;;;;;;;;;;;;5054944;28;19925;-67
2024/01/29 07:39:54;;;;;;;;;;;;;;;;;;5041927;28;19925;-66
2024/01/29 07:42:21;;;;;;;;;;;;;;;;;;5051011;28;19925;-66
2024/01/29 07:44:52;;;;;;;;;;;;;;;;;;5052188;28;19928;-67
2024/01/29 07:47:19;;;;;;;;;;;;;;;;;;5049508;28;19964;-66
2024/01/29 07:49:46;;;;;;;;;;;;;;;;;;5053720;28;19925;-66
2024/01/29 07:52:13;;;;;;;;;;;;;;;;;;5059190;22;20387;-66
2024/01/29 07:54:40;;;;;;;;;;;;;;;;;;5051812;28;19975;-68
2024/01/29 07:57:07;;;;;;;;;;;;;;;;;;5031513;28;19925;-67
2024/01/29 07:59:34;;;;;;;;;;;;;;;;;;5031223;28;19965;-68
2024/01/29 08:02:02;;;;;;;;;;;;;;;;;;5039412;28;19955;-69
2024/01/29 08:04:31;;;;;;;;;;;;;;;;;;5029505;28;19956;-68
2024/01/29 08:06:58;;;;;;;;;;;;;;;;;;5017312;28;19929;-68
2024/01/29 08:09:26;;;;;;;;;;;;;;;;;;5025734;28;20012;-68
2024/01/29 08:11:53;;;;;;;;;;;;;;;;;;5014748;28;20009;-67
2024/01/29 08:14:21;;;;;;;;;;;;;;;;;;5026183;28;19979;-67
2024/01/29 08:16:48;;;;;;;;;;;;;;;;;;5033382;28;20452;-68
2024/01/29 08:19:15;;;;;;;;;;;;;;;;;;5030354;28;19925;-68
2024/01/29 08:21:42;;;;;;;;;;;;;;;;;;5024744;28;19929;-67
2024/01/29 08:24:09;;;;;;;;;;;;;;;;;;5026874;28;20314;-68
2024/01/29 08:26:36;;;;;;;;;;;;;;;;;;5032686;28;20420;-67
2024/01/29 08:29:03;;;;;;;;;;;;;;;;;;5034095;28;20411;-67
2024/01/29 08:31:30;;;;;;;;;;;;;;;;;;5028699;28;19933;-67
2024/01/29 08:33:57;;;;;;;;;;;;;;;;;;5023737;28;20015;-68
2024/01/29 08:36:25;;;;;;;;;;;;;;;;;;5024291;28;20285;-68
2024/01/29 08:38:52;;;;;;;;;;;;;;;;;;5030838;28;20403;-67
2024/01/29 08:41:20;;;;;;;;;;;;;;;;;;5029981;28;19926;-67
2024/01/29 08:43:47;;;;;;;;;;;;;;;;;;5029866;28;19944;-68
2024/01/29 08:46:14;;;;;;;;;;;;;;;;;;5027163;28;20391;-68
2024/01/29 08:48:41;;;;;;;;;;;;;;;;;;5033043;28;19940;-68
2024/01/29 08:51:08;;;;;;;;;;;;;;;;;;5028478;28;20359;-68
2024/01/29 08:53:36;;;;;;;;;;;;;;;;;;5029842;28;20015;-67
2024/01/29 08:56:03;;;;;;;;;;;;;;;;;;5026585;28;20039;-67
2024/01/29 08:58:30;;;;;;;;;;;;;;;;;;5030402;28;19929;-68
2024/01/29 09:00:57;;;;;;;;;;;;;;;;;;5028759;28;19925;-68
2024/01/29 09:03:24;;;;;;;;;;;;;;;;;;5020864;28;19990;-68
2024/01/29 09:05:51;;;;;;;;;;;;;;;;;;5021279;28;19959;-68
2024/01/29 09:08:19;;;;;;;;;;;;;;;;;;5031027;28;19987;-67
2024/01/29 09:10:46;;;;;;;;;;;;;;;;;;5025044;28;19925;-67
2024/01/29 09:13:13;;;;;;;;;;;;;;;;;;5026539;28;20380;-68
2024/01/29 09:15:40;;;;;;;;;;;;;;;;;;5021073;28;19925;-70
2024/01/29 09:18:07;;;;;;;;;;;;;;;;;;5026296;28;20023;-71
2024/01/29 09:20:34;;;;;;;;;;;;;;;;;;5027583;28;19929;-70
2024/01/29 09:23:01;;;;;;;;;;;;;;;;;;5025758;28;19989;-71
2024/01/29 09:25:28;;;;;;;;;;;;;;;;;;5022448;28;19925;-68
2024/01/29 09:27:55;;;;;;;;;;;;;;;;;;5021217;28;19933;-69
2024/01/29 09:30:22;;;;;;;;;;;;;;;;;;5024116;28;20030;-69
2024/01/29 09:32:49;;;;;;;;;;;;;;;;;;5026380;28;20352;-70
2024/01/29 09:35:16;;;;;;;;;;;;;;;;;;5027692;28;19925;-70
2024/01/29 09:37:43;;;;;;;;;;;;;;;;;;5026083;28;20019;-70
2024/01/29 09:40:10;;;;;;;;;;;;;;;;;;5023537;28;20392;-71
2024/01/29 09:42:37;;;;;;;;;;;;;;;;;;5026962;28;19925;-70
2024/01/29 09:45:04;;;;;;;;;;;;;;;;;;5027062;28;19979;-70
2024/01/29 09:47:31;;;;;;;;;;;;;;;;;;5026305;28;20512;-71
2024/01/29 09:49:58;;;;;;;;;;;;;;;;;;5021530;28;19925;-70
2024/01/29 09:52:25;;;;;;;;;;;;;;;;;;5023738;28;20446;-69
2024/01/29 09:54:52;;;;;;;;;;;;;;;;;;5019337;28;19926;-71
2024/01/29 09:57:19;;;;;;;;;;;;;;;;;;5019077;28;19987;-70
2024/01/29 09:59:46;;;;;;;;;;;;;;;;;;5032264;28;19925;-68
2024/01/29 10:02:13;;;;;;;;;;;;;;;;;;5024295;28;20462;-68
2024/01/29 10:04:40;;;;;;;;;;;;;;;;;;5029881;28;19925;-68
2024/01/29 10:07:07;;;;;;;;;;;;;;;;;;5028007;28;19957;-67
2024/01/29 10:09:35;;;;;;;;;;;;;;;;;;5023206;28;19987;-67
2024/01/29 10:12:02;;;;;;;;;;;;;;;;;;5028653;28;19925;-67
2024/01/29 10:14:30;;;;;;;;;;;;;;;;;;5029641;28;19925;-68
2024/01/29 10:16:57;;;;;;;;;;;;;;;;;;5030621;28;19925;-68
2024/01/29 10:19:23;;;;;;;;;;;;;;;;;;5026948;28;19944;-67
2024/01/29 10:21:50;;;;;;;;;;;;;;;;;;5026963;28;19933;-67
2024/01/29 10:24:17;;;;;;;;;;;;;;;;;;5026842;28;19932;-67
2024/01/29 10:26:44;;;;;;;;;;;;;;;;;;5027819;28;19929;-67
2024/01/29 10:29:11;;;;;;;;;;;;;;;;;;5028927;28;19980;-67
2024/01/29 10:31:38;;;;;;;;;;;;;;;;;;5023599;28;20373;-67
2024/01/29 10:34:05;;;;;;;;;;;;;;;;;;5030180;28;19979;-68
2024/01/29 10:36:33;;;;;;;;;;;;;;;;;;5025054;28;19926;-66
2024/01/29 10:39:01;;;;;;;;;;;;;;;;;;5029036;28;19933;-67
2024/01/29 10:41:28;;;;;;;;;;;;;;;;;;5023588;28;20035;-68
2024/01/29 10:43:55;;;;;;;;;;;;;;;;;;5024829;28;19925;-67
2024/01/29 10:46:22;;;;;;;;;;;;;;;;;;5023802;28;22424;-68
2024/01/29 10:48:49;;;;;;;;;;;;;;;;;;5026838;28;19933;-67
2024/01/29 10:51:16;;;;;;;;;;;;;;;;;;5018650;28;20038;-68
2024/01/29 10:53:43;;;;;;;;;;;;;;;;;;5018720;28;19925;-67
2024/01/29 10:56:10;;;;;;;;;;;;;;;;;;5020986;28;20296;-68
2024/01/29 10:58:37;;;;;;;;;;;;;;;;;;5023170;28;19957;-68
2024/01/29 11:01:04;;;;;;;;;;;;;;;;;;5029699;28;20299;-66
2024/01/29 11:03:31;;;;;;;;;;;;;;;;;;5022860;28;20344;-67
2024/01/29 11:05:59;;;;;;;;;;;;;;;;;;5011383;28;19988;-67
2024/01/29 11:08:26;;;;;;;;;;;;;;;;;;5011829;28;19925;-68
2024/01/29 11:10:53;;;;;;;;;;;;;;;;;;5024466;28;20351;-68
2024/01/29 11:13:22;;;;;;;;;;;;;;;;;;5030008;28;19926;-68
2024/01/29 11:15:50;;;;;;;;;;;;;;;;;;5020348;28;20292;-68
2024/01/29 11:18:17;;;;;;;;;;;;;;;;;;5026234;28;20024;-68
2024/01/29 11:20:44;;;;;;;;;;;;;;;;;;5016973;28;20376;-68
2024/01/29 11:23:11;;;;;;;;;;;;;;;;;;5024204;28;20034;-68
2024/01/29 11:25:38;;;;;;;;;;;;;;;;;;5026327;28;19925;-68
2024/01/29 11:28:05;;;;;;;;;;;;;;;;;;5026816;28;19930;-69
2024/01/29 11:30:32;;;;;;;;;;;;;;;;;;5021319;28;19964;-68
2024/01/29 11:32:59;;;;;;;;;;;;;;;;;;5028146;28;19925;-68
2024/01/29 11:35:26;;;;;;;;;;;;;;;;;;5029965;28;19983;-68
2024/01/29 11:37:54;;;;;;;;;;;;;;;;;;5027209;28;19929;-68
2024/01/29 11:40:21;;;;;;;;;;;;;;;;;;5019335;28;19925;-68
2024/01/29 11:42:48;;;;;;;;;;;;;;;;;;5028663;28;20002;-68
2024/01/29 11:45:15;;;;;;;;;;;;;;;;;;5024428;28;20288;-68
2024/01/29 11:47:42;;;;;;;;;;;;;;;;;;5032071;28;19925;-68
2024/01/29 11:50:10;;;;;;;;;;;;;;;;;;5032067;28;19929;-68
2024/01/29 11:52:37;;;;;;;;;;;;;;;;;;5028293;28;19931;-68
2024/01/29 11:55:04;;;;;;;;;;;;;;;;;;5034309;28;19944;-68
2024/01/29 11:57:32;;;;;;;;;;;;;;;;;;5032356;28;20527;-68
2024/01/29 11:59:59;;;;;;;;;;;;;;;;;;5030437;28;19929;-68
2024/01/29 12:02:26;;;;;;;;;;;;;;;;;;5031102;28;19929;-69
2024/01/29 12:04:53;;;;;;;;;;;;;;;;;;5030504;28;20384;-68
2024/01/29 12:07:20;;;;;;;;;;;;;;;;;;5029335;28;20063;-68
2024/01/29 12:09:47;;;;;;;;;;;;;;;;;;5019774;28;19926;-68
2024/01/29 12:12:14;;;;;;;;;;;;;;;;;;5034192;28;19925;-68
2024/01/29 12:14:41;;;;;;;;;;;;;;;;;;5027187;28;20337;-68
2024/01/29 12:17:11;;;;;;;;;;;;;;;;;;5032490;28;19925;-68
2024/01/29 12:19:38;;;;;;;;;;;;;;;;;;5027754;28;20015;-69
2024/01/29 12:22:05;;;;;;;;;;;;;;;;;;5031256;28;20307;-68
2024/01/29 12:24:32;;;;;;;;;;;;;;;;;;5031210;28;19979;-68
2024/01/29 12:26:59;;;;;;;;;;;;;;;;;;5031828;28;20333;-68
2024/01/29 12:29:28;;;;;;;;;;;;;;;;;;5032675;28;19980;-68
2024/01/29 12:31:55;;;;;;;;;;;;;;;;;;5033821;28;19933;-68
2024/01/29 12:34:23;;;;;;;;;;;;;;;;;;5017221;28;19976;-68
2024/01/29 12:36:50;;;;;;;;;;;;;;;;;;5024960;28;19925;-68
2024/01/29 12:39:17;;;;;;;;;;;;;;;;;;5026091;28;19925;-68
2024/01/29 12:41:44;;;;;;;;;;;;;;;;;;5029142;28;19979;-67
2024/01/29 12:44:11;;;;;;;;;;;;;;;;;;5029623;28;19976;-67
2024/01/29 12:46:38;;;;;;;;;;;;;;;;;;5017837;28;19925;-67
2024/01/29 12:49:05;;;;;;;;;;;;;;;;;;5036217;28;19964;-67
2024/01/29 12:51:32;;;;;;;;;;;;;;;;;;5033498;28;19983;-67
2024/01/29 12:53:59;;;;;;;;;;;;;;;;;;5031063;28;20399;-67
2024/01/29 12:56:29;;;;;;;;;;;;;;;;;;5031774;28;19968;-68
2024/01/29 12:58:56;;;;;;;;;;;;;;;;;;5027439;28;19930;-67
2024/01/29 13:01:23;;;;;;;;;;;;;;;;;;5027482;28;19965;-67
2024/01/29 13:03:50;;;;;;;;;;;;;;;;;;5026880;28;19968;-67
2024/01/29 13:06:18;;;;;;;;;;;;;;;;;;5025793;28;20372;-68
2024/01/29 13:08:45;;;;;;;;;;;;;;;;;;5022806;28;19925;-69
2024/01/29 13:11:12;;;;;;;;;;;;;;;;;;5025824;28;19976;-68
2024/01/29 13:13:39;;;;;;;;;;;;;;;;;;5028462;28;19960;-68
2024/01/29 13:16:06;;;;;;;;;;;;;;;;;;5027263;28;20007;-68
2024/01/29 13:18:33;;;;;;;;;;;;;;;;;;5028138;28;19956;-69
2024/01/29 13:21:00;;;;;;;;;;;;;;;;;;5018338;28;20011;-68
2024/01/29 13:23:27;;;;;;;;;;;;;;;;;;5031777;28;19925;-68
2024/01/29 13:25:54;;;;;;;;;;;;;;;;;;5029471;28;19979;-69
2024/01/29 13:28:21;;;;;;;;;;;;;;;;;;5022020;28;20384;-68
2024/01/29 13:30:49;;;;;;;;;;;;;;;;;;5026912;28;19925;-69
2024/01/29 13:33:17;;;;;;;;;;;;;;;;;;5028903;28;19932;-69
2024/01/29 13:35:44;;;;;;;;;;;;;;;;;;5027794;28;20410;-70
2024/01/29 13:38:11;;;;;;;;;;;;;;;;;;5020557;28;19976;-68
2024/01/29 13:40:38;;;;;;;;;;;;;;;;;;5022169;28;19929;-71
2024/01/29 13:43:06;;;;;;;;;;;;;;;;;;5024697;28;20464;-69
2024/01/29 13:45:33;;;;;;;;;;;;;;;;;;5025541;28;19971;-69
2024/01/29 13:48:02;;;;;;;;;;;;;;;;;;5022546;28;19925;-70
2024/01/29 13:50:30;;;;;;;;;;;;;;;;;;5020544;28;19987;-69
2024/01/29 13:52:57;;;;;;;;;;;;;;;;;;5026534;28;19975;-69
2024/01/29 13:55:24;;;;;;;;;;;;;;;;;;5018864;28;19925;-69
2024/01/29 13:57:51;;;;;;;;;;;;;;;;;;5031658;28;20016;-69
2024/01/29 14:00:18;;;;;;;;;;;;;;;;;;5021308;28;19929;-69
2024/01/29 14:02:45;;;;;;;;;;;;;;;;;;5017847;28;19925;-72
2024/01/29 14:05:12;;;;;;;;;;;;;;;;;;5027215;28;20415;-71
2024/01/29 14:07:39;;;;;;;;;;;;;;;;;;5024521;28;19936;-71
2024/01/29 14:10:07;;;;;;;;;;;;;;;;;;5014590;28;19929;-71
2024/01/29 14:12:34;;;;;;;;;;;;;;;;;;5017545;28;20442;-71
2024/01/29 14:15:03;;;;;;;;;;;;;;;;;;5020800;28;19983;-70
2024/01/29 14:17:30;;;;;;;;;;;;;;;;;;5028296;28;19937;-72
2024/01/29 14:19:57;;;;;;;;;;;;;;;;;;5033630;28;19929;-71
2024/01/29 14:22:25;;;;;;;;;;;;;;;;;;5035286;28;20008;-71
2024/01/29 14:24:56;;;;;;;;;;;;;;;;;;5022147;28;19925;-74
2024/01/29 14:27:23;;;;;;;;;;;;;;;;;;5014453;28;19952;-72
2024/01/29 14:29:59;;;;;;;;;;;;;;;;;;5015697;28;19932;-70
2024/01/29 14:32:33;;;;;;;;;;;;;;;;;;5024498;28;19925;-72
2024/01/29 14:35:06;;;;;;;;;;;;;;;;;;5023669;28;19932;-73
2024/01/29 14:37:33;;;;;;;;;;;;;;;;;;5021437;28;19925;-72
2024/01/29 14:40:01;;;;;;;;;;;;;;;;;;5017795;28;19968;-73
2024/01/29 14:42:28;;;;;;;;;;;;;;;;;;5032425;28;20373;-73
2024/01/29 14:44:56;;;;;;;;;;;;;;;;;;5021031;28;19926;-69
2024/01/29 14:47:23;;;;;;;;;;;;;;;;;;5027780;28;19933;-69
2024/01/29 14:49:51;;;;;;;;;;;;;;;;;;5023798;28;19969;-70
2024/01/29 14:54:59;;;;;;;;;;;;;;;;;;5029694;28;19931;-70
2024/01/29 14:57:30;;;;;;;;;;;;;;;;;;5022530;28;19925;-70
2024/01/29 15:00:01;;;;;;;;;;;;;;;;;;5028672;28;19968;-70
2024/01/29 15:02:29;;;;;;;;;;;;;;;;;;5015952;28;19976;-68
2024/01/29 15:04:57;;;;;;;;;;;;;;;;;;5031295;28;19929;-68
2024/01/29 15:07:27;;;;;;;;;;;;;;;;;;5026388;28;20019;-70
2024/01/29 15:09:54;;;;;;;;;;;;;;;;;;5022948;28;20024;-67
2024/01/29 15:12:22;;;;;;;;;;;;;;;;;;5025348;28;19979;-68
2024/01/29 15:20:19;;;;;;;;;;;;;;;;;;5019048;28;20013;-71
2024/01/29 15:22:47;;;;;;;;;;;;;;;;;;5021370;28;19929;-70
2024/01/29 15:25:14;;;;;;;;;;;;;;;;;;5031850;28;19926;-71
2024/01/29 15:27:43;;;;;;;;;;;;;;;;;;5022970;28;20431;-70
2024/01/29 15:30:11;;;;;;;;;;;;;;;;;;5167853;22;19928;-71
2024/01/29 15:32:38;;;;;;;;;;;;;;;;;;5068030;28;19932;-72
2024/01/29 15:35:06;;;;;;;;;;;;;;;;;;5073247;28;20007;-70
2024/01/29 15:37:33;;;;;;;;;;;;;;;;;;5070196;28;20403;-80
2024/01/29 15:40:01;;;;;;;;;;;;;;;;;;5056833;28;19933;-72
2024/01/29 15:42:29;;;;;;;;;;;;;;;;;;5075868;28;19924;-73
2024/01/29 15:44:57;;;;;;;;;;;;;;;;;;5072237;28;19925;-71
2024/01/29 15:47:24;;;;;;;;;;;;;;;;;;5072804;28;19967;-73
2024/01/29 15:49:51;;;;;;;;;;;;;;;;;;5073061;28;20073;-72
2024/01/29 15:52:18;;;;;;;;;;;;;;;;;;5069979;28;20334;-73
2024/01/29 15:54:46;;;;;;;;;;;;;;;;;;5067718;28;19924;-73
2024/01/29 15:57:14;;;;;;;;;;;;;;;;;;5071873;28;19971;-74
2024/01/29 15:59:45;;;;;;;;;;;;;;;;;;5073383;28;19924;-75
2024/01/29 16:02:12;;;;;;;;;;;;;;;;;;5072227;28;19932;-74
2024/01/29 16:04:39;;;;;;;;;;;;;;;;;;5062885;28;20011;-77
2024/01/29 16:07:06;;;;;;;;;;;;;;;;;;5055937;22;20380;-72
2024/01/29 16:09:33;;;;;;;;;;;;;;;;;;5034656;28;19971;-72
2024/01/29 16:12:00;;;;;;;;;;;;;;;;;;5033327;28;19933;-73
2024/01/29 16:14:27;;;;;;;;;;;;;;;;;;5032755;28;20399;-73
2024/01/29 16:16:54;;;;;;;;;;;;;;;;;;5033575;28;20381;-73
2024/01/29 16:19:21;;;;;;;;;;;;;;;;;;5031664;28;19933;-73
2024/01/29 16:21:49;;;;;;;;;;;;;;;;;;5030691;28;19995;-73
2024/01/29 16:24:17;;;;;;;;;;;;;;;;;;5032233;28;19931;-73
2024/01/29 16:26:44;;;;;;;;;;;;;;;;;;5030823;28;19956;-73
2024/01/29 16:29:11;;;;;;;;;;;;;;;;;;5031627;28;20006;-75
2024/01/29 16:31:39;;;;;;;;;;;;;;;;;;5031683;28;20304;-75
2024/01/29 16:34:06;;;;;;;;;;;;;;;;;;5030394;28;19948;-74
2024/01/29 16:36:33;;;;;;;;;;;;;;;;;;5031217;28;19924;-72
2024/01/29 16:39:00;;;;;;;;;;;;;;;;;;5030693;28;20412;-74
2024/01/29 16:41:28;;;;;;;;;;;;;;;;;;5030844;28;19925;-75
2024/01/29 16:43:55;;;;;;;;;;;;;;;;;;5031223;28;19971;-83
2024/01/29 16:46:23;;;;;;;;;;;;;;;;;;5035782;28;19925;-83
2024/01/29 16:48:50;;;;;;;;;;;;;;;;;;5032738;28;19925;-82
2024/01/29 16:51:17;;;;;;;;;;;;;;;;;;5034626;28;19935;-82
2024/01/29 16:53:45;;;;;;;;;;;;;;;;;;5026628;28;20024;-83